This is the latest recevied weather packets stored in our database for station/object OE6CUD-6. If no packets are shown the sender has not sent any weather packets the latest 10 day(s).
| Time | Temp. | Humidity | Pressure | Rain* | Wind** | Luminosity | Snow |
|---|---|---|---|---|---|---|---|
| 1777694136 | 5.56° C | 94% | 1022.7 hPa | 0 mm | - | 0 W/m² | - |
| 1777692026 | 6.11° C | 91% | 1022.7 hPa | 0 mm | - | 0 W/m² | - |
| 1777692021 | 6.11° C | 92% | 1022.7 hPa | 0 mm | - | 0 W/m² | - |
| 1777691385 | 6.11° C | 91% | 1022.8 hPa | 0 mm | - | 0 W/m² | - |
| 1777691238 | 6.11° C | 90% | 1022.8 hPa | 0 mm | - | 0 W/m² | - |
| 1777688363 | 6.67° C | 89% | 1023.1 hPa | 0 mm | - | 0 W/m² | - |
| 1777688059 | 6.67° C | 89% | 1023.2 hPa | 0 mm | - | 0 W/m² | - |
| 1777686848 | 6.67° C | 88% | 1023.4 hPa | 0 mm | - | 0 W/m² | - |
| 1777685941 | 7.22° C | 87% | 1023.4 hPa | 0 mm | - | 0 W/m² | - |
| 1777685642 | 7.22° C | 87% | 1023.4 hPa | 0 mm | - | 0 W/m² | - |
| 1777678351 | 8.33° C | 86% | 1024.2 hPa | 0 mm | - | 0 W/m² | - |
| 1777677129 | 8.33° C | 87% | 1024.3 hPa | 0 mm | - | 0 W/m² | - |
| 1777676389 | 8.33° C | 85% | 1024.5 hPa | 0 mm | - | 0 W/m² | - |
| 1777674098 | 8.89° C | 84% | 1024.7 hPa | 0 mm | - | 0 W/m² | - |
| 1777673792 | 8.89° C | 84% | 1024.7 hPa | 0 mm | - | 0 W/m² | - |
| 1777673484 | 8.89° C | 84% | 1024.8 hPa | 0 mm | - | 0 W/m² | - |
| 1777673174 | 8.89° C | 83% | 1024.8 hPa | 0 mm | - | 0 W/m² | - |
| 1777671211 | 10° C | 80% | 1024.9 hPa | 0 mm | - | 0 W/m² | - |
| 1777670740 | 10° C | 79% | 1024.9 hPa | 0 mm | - | 0 W/m² | - |
| 1777670434 | 10.56° C | 78% | 1024.9 hPa | 0 mm | - | 0 W/m² | - |
| 1777670131 | 10.56° C | 78% | 1025 hPa | 0 mm | - | 0 W/m² | - |
| 1777669821 | 10.56° C | 77% | 1025.1 hPa | 0 mm | - | 0 W/m² | - |
| 1777669204 | 10.56° C | 79% | 1025.2 hPa | 0 mm | - | 0 W/m² | - |
| 1777667682 | 11.11° C | 76% | 1025.1 hPa | 0 mm | - | 0 W/m² | - |
| 1777663437 | 13.33° C | 68% | 1025.3 hPa | 0 mm | - | 0 W/m² | - |
* Rain latest hour (hover to see other rain measurements)
** Current wind speed in m/s (hover to see current wind gust speed)